sensor_id;sensor_type;location;lat;lon;timestamp;P1;durP1;ratioP1;P2;durP2;ratioP2
35646;SDS011;28680;45.642;13.756;2023-05-23T00:02:20;7.53;;;4.50;;
35646;SDS011;28680;45.642;13.756;2023-05-23T00:04:46;14.50;;;5.07;;
35646;SDS011;28680;45.642;13.756;2023-05-23T00:07:13;7.00;;;4.93;;
35646;SDS011;28680;45.642;13.756;2023-05-23T00:09:40;11.25;;;4.78;;
35646;SDS011;28680;45.642;13.756;2023-05-23T00:12:06;8.82;;;4.85;;
35646;SDS011;28680;45.642;13.756;2023-05-23T00:14:32;8.40;;;4.93;;
35646;SDS011;28680;45.642;13.756;2023-05-23T00:16:59;9.30;;;5.47;;
35646;SDS011;28680;45.642;13.756;2023-05-23T00:19:25;12.68;;;5.07;;
35646;SDS011;28680;45.642;13.756;2023-05-23T00:21:51;10.07;;;4.65;;
35646;SDS011;28680;45.642;13.756;2023-05-23T00:24:20;9.15;;;4.95;;
35646;SDS011;28680;45.642;13.756;2023-05-23T00:26:46;9.75;;;4.82;;
35646;SDS011;28680;45.642;13.756;2023-05-23T00:29:13;10.45;;;5.30;;
35646;SDS011;28680;45.642;13.756;2023-05-23T00:31:43;13.35;;;5.38;;
35646;SDS011;28680;45.642;13.756;2023-05-23T00:34:19;8.43;;;4.97;;
35646;SDS011;28680;45.642;13.756;2023-05-23T00:36:45;10.80;;;5.20;;
35646;SDS011;28680;45.642;13.756;2023-05-23T00:39:14;10.13;;;4.60;;
35646;SDS011;28680;45.642;13.756;2023-05-23T00:41:44;8.73;;;4.43;;
35646;SDS011;28680;45.642;13.756;2023-05-23T00:44:14;12.63;;;4.65;;
35646;SDS011;28680;45.642;13.756;2023-05-23T00:46:44;8.23;;;4.43;;
35646;SDS011;28680;45.642;13.756;2023-05-23T00:49:11;8.32;;;4.35;;
35646;SDS011;28680;45.642;13.756;2023-05-23T00:51:37;8.85;;;4.53;;
35646;SDS011;28680;45.642;13.756;2023-05-23T00:54:03;5.78;;;4.07;;
35646;SDS011;28680;45.642;13.756;2023-05-23T00:56:30;7.78;;;4.05;;
35646;SDS011;28680;45.642;13.756;2023-05-23T00:58:56;9.48;;;4.60;;
35646;SDS011;28680;45.642;13.756;2023-05-23T01:01:24;9.15;;;4.57;;
35646;SDS011;28680;45.642;13.756;2023-05-23T01:03:51;6.32;;;4.15;;
35646;SDS011;28680;45.642;13.756;2023-05-23T01:06:17;5.70;;;4.18;;
35646;SDS011;28680;45.642;13.756;2023-05-23T01:08:44;7.20;;;4.60;;
35646;SDS011;28680;45.642;13.756;2023-05-23T01:11:21;8.55;;;4.35;;
35646;SDS011;28680;45.642;13.756;2023-05-23T01:14:03;8.93;;;4.57;;
35646;SDS011;28680;45.642;13.756;2023-05-23T01:16:46;7.80;;;4.00;;
35646;SDS011;28680;45.642;13.756;2023-05-23T01:22:22;8.88;;;3.95;;
35646;SDS011;28680;45.642;13.756;2023-05-23T01:28:36;7.40;;;4.53;;
35646;SDS011;28680;45.642;13.756;2023-05-23T01:31:09;7.20;;;4.38;;
35646;SDS011;28680;45.642;13.756;2023-05-23T01:33:36;6.78;;;4.07;;
35646;SDS011;28680;45.642;13.756;2023-05-23T01:36:04;6.75;;;4.53;;
35646;SDS011;28680;45.642;13.756;2023-05-23T01:38:30;6.65;;;3.80;;
35646;SDS011;28680;45.642;13.756;2023-05-23T01:40:56;6.10;;;4.07;;
35646;SDS011;28680;45.642;13.756;2023-05-23T01:43:22;8.07;;;4.15;;
35646;SDS011;28680;45.642;13.756;2023-05-23T01:45:51;8.43;;;4.22;;
35646;SDS011;28680;45.642;13.756;2023-05-23T01:48:20;5.45;;;4.05;;
35646;SDS011;28680;45.642;13.756;2023-05-23T01:50:47;7.43;;;4.10;;
35646;SDS011;28680;45.642;13.756;2023-05-23T01:53:14;6.57;;;4.43;;
35646;SDS011;28680;45.642;13.756;2023-05-23T01:55:41;6.32;;;4.15;;
35646;SDS011;28680;45.642;13.756;2023-05-23T01:58:08;9.73;;;4.63;;
35646;SDS011;28680;45.642;13.756;2023-05-23T02:00:35;11.75;;;5.00;;
35646;SDS011;28680;45.642;13.756;2023-05-23T02:03:01;6.25;;;4.35;;
35646;SDS011;28680;45.642;13.756;2023-05-23T02:05:27;6.25;;;4.05;;
35646;SDS011;28680;45.642;13.756;2023-05-23T02:07:53;7.18;;;4.47;;
35646;SDS011;28680;45.642;13.756;2023-05-23T02:10:19;5.53;;;4.03;;
35646;SDS011;28680;45.642;13.756;2023-05-23T02:12:45;7.32;;;4.10;;
35646;SDS011;28680;45.642;13.756;2023-05-23T02:15:11;7.32;;;4.53;;
35646;SDS011;28680;45.642;13.756;2023-05-23T02:17:37;6.07;;;4.00;;
35646;SDS011;28680;45.642;13.756;2023-05-23T02:20:03;9.13;;;4.45;;
35646;SDS011;28680;45.642;13.756;2023-05-23T02:22:30;9.93;;;4.75;;
35646;SDS011;28680;45.642;13.756;2023-05-23T02:24:56;6.95;;;4.28;;
35646;SDS011;28680;45.642;13.756;2023-05-23T02:27:22;8.45;;;4.30;;
35646;SDS011;28680;45.642;13.756;2023-05-23T02:29:48;8.98;;;4.30;;
35646;SDS011;28680;45.642;13.756;2023-05-23T02:32:13;7.55;;;3.95;;
35646;SDS011;28680;45.642;13.756;2023-05-23T02:34:48;6.32;;;3.92;;
35646;SDS011;28680;45.642;13.756;2023-05-23T02:37:14;6.28;;;4.10;;
35646;SDS011;28680;45.642;13.756;2023-05-23T02:39:41;6.20;;;4.72;;
35646;SDS011;28680;45.642;13.756;2023-05-23T02:42:07;5.68;;;4.15;;
35646;SDS011;28680;45.642;13.756;2023-05-23T02:44:33;8.05;;;4.28;;
35646;SDS011;28680;45.642;13.756;2023-05-23T02:46:59;6.38;;;4.10;;
35646;SDS011;28680;45.642;13.756;2023-05-23T02:49:25;7.55;;;4.15;;
35646;SDS011;28680;45.642;13.756;2023-05-23T02:51:51;7.10;;;4.03;;
35646;SDS011;28680;45.642;13.756;2023-05-23T02:54:17;8.20;;;4.25;;
35646;SDS011;28680;45.642;13.756;2023-05-23T02:56:44;6.10;;;4.15;;
35646;SDS011;28680;45.642;13.756;2023-05-23T02:59:10;8.20;;;4.22;;
35646;SDS011;28680;45.642;13.756;2023-05-23T03:01:36;7.75;;;4.47;;
35646;SDS011;28680;45.642;13.756;2023-05-23T03:04:02;7.10;;;3.90;;
35646;SDS011;28680;45.642;13.756;2023-05-23T03:06:28;6.70;;;4.80;;
35646;SDS011;28680;45.642;13.756;2023-05-23T03:08:56;10.00;;;4.50;;
35646;SDS011;28680;45.642;13.756;2023-05-23T03:11:22;6.32;;;4.18;;
35646;SDS011;28680;45.642;13.756;2023-05-23T03:13:48;5.07;;;3.83;;
35646;SDS011;28680;45.642;13.756;2023-05-23T03:16:14;6.57;;;4.05;;
35646;SDS011;28680;45.642;13.756;2023-05-23T03:18:40;7.60;;;4.43;;
35646;SDS011;28680;45.642;13.756;2023-05-23T03:21:06;6.18;;;4.32;;
35646;SDS011;28680;45.642;13.756;2023-05-23T03:23:32;5.80;;;4.03;;
35646;SDS011;28680;45.642;13.756;2023-05-23T03:25:58;6.32;;;4.28;;
35646;SDS011;28680;45.642;13.756;2023-05-23T03:28:27;6.47;;;3.97;;
35646;SDS011;28680;45.642;13.756;2023-05-23T03:31:02;8.45;;;4.50;;
35646;SDS011;28680;45.642;13.756;2023-05-23T03:33:28;8.02;;;4.80;;
35646;SDS011;28680;45.642;13.756;2023-05-23T03:35:54;12.93;;;4.53;;
35646;SDS011;28680;45.642;13.756;2023-05-23T03:38:21;8.93;;;4.32;;
35646;SDS011;28680;45.642;13.756;2023-05-23T03:40:47;9.25;;;4.40;;
35646;SDS011;28680;45.642;13.756;2023-05-23T03:43:16;10.48;;;4.70;;
35646;SDS011;28680;45.642;13.756;2023-05-23T03:45:42;8.52;;;4.63;;
35646;SDS011;28680;45.642;13.756;2023-05-23T03:48:07;8.18;;;4.30;;
35646;SDS011;28680;45.642;13.756;2023-05-23T03:50:33;7.38;;;5.05;;
35646;SDS011;28680;45.642;13.756;2023-05-23T03:53:02;10.85;;;4.90;;
35646;SDS011;28680;45.642;13.756;2023-05-23T03:55:29;13.63;;;4.90;;
35646;SDS011;28680;45.642;13.756;2023-05-23T03:57:56;6.40;;;4.35;;
35646;SDS011;28680;45.642;13.756;2023-05-23T04:00:22;9.25;;;4.45;;
35646;SDS011;28680;45.642;13.756;2023-05-23T04:02:48;10.18;;;4.85;;
35646;SDS011;28680;45.642;13.756;2023-05-23T04:05:15;6.18;;;4.38;;
35646;SDS011;28680;45.642;13.756;2023-05-23T04:07:48;7.20;;;4.65;;
35646;SDS011;28680;45.642;13.756;2023-05-23T04:10:15;7.45;;;4.25;;
35646;SDS011;28680;45.642;13.756;2023-05-23T04:12:42;5.57;;;4.10;;
35646;SDS011;28680;45.642;13.756;2023-05-23T04:15:08;8.88;;;4.72;;
35646;SDS011;28680;45.642;13.756;2023-05-23T04:17:35;10.10;;;4.68;;
35646;SDS011;28680;45.642;13.756;2023-05-23T04:20:03;9.98;;;4.70;;
35646;SDS011;28680;45.642;13.756;2023-05-23T04:22:33;11.70;;;4.88;;
35646;SDS011;28680;45.642;13.756;2023-05-23T04:24:59;7.47;;;4.10;;
35646;SDS011;28680;45.642;13.756;2023-05-23T04:27:25;9.40;;;4.47;;
35646;SDS011;28680;45.642;13.756;2023-05-23T04:29:51;7.32;;;4.50;;
35646;SDS011;28680;45.642;13.756;2023-05-23T04:32:17;8.05;;;4.40;;
35646;SDS011;28680;45.642;13.756;2023-05-23T04:34:46;6.95;;;4.47;;
35646;SDS011;28680;45.642;13.756;2023-05-23T04:37:12;9.30;;;4.93;;
35646;SDS011;28680;45.642;13.756;2023-05-23T04:39:38;10.27;;;5.57;;
35646;SDS011;28680;45.642;13.756;2023-05-23T04:42:04;9.65;;;5.50;;
35646;SDS011;28680;45.642;13.756;2023-05-23T04:44:31;7.72;;;5.30;;
35646;SDS011;28680;45.642;13.756;2023-05-23T04:46:57;8.38;;;5.50;;
35646;SDS011;28680;45.642;13.756;2023-05-23T04:49:23;11.85;;;5.80;;
35646;SDS011;28680;45.642;13.756;2023-05-23T04:51:49;11.07;;;7.68;;
35646;SDS011;28680;45.642;13.756;2023-05-23T04:54:15;12.07;;;5.90;;
35646;SDS011;28680;45.642;13.756;2023-05-23T04:56:41;10.95;;;5.30;;
35646;SDS011;28680;45.642;13.756;2023-05-23T04:59:06;9.60;;;6.03;;
35646;SDS011;28680;45.642;13.756;2023-05-23T05:01:35;8.60;;;5.55;;
35646;SDS011;28680;45.642;13.756;2023-05-23T05:04:04;9.52;;;5.53;;
35646;SDS011;28680;45.642;13.756;2023-05-23T05:06:30;8.50;;;5.68;;
35646;SDS011;28680;45.642;13.756;2023-05-23T05:08:57;9.88;;;5.90;;
35646;SDS011;28680;45.642;13.756;2023-05-23T05:11:24;9.60;;;5.88;;
35646;SDS011;28680;45.642;13.756;2023-05-23T05:13:51;11.32;;;5.68;;
35646;SDS011;28680;45.642;13.756;2023-05-23T05:16:17;11.75;;;5.50;;
35646;SDS011;28680;45.642;13.756;2023-05-23T05:18:42;8.48;;;4.70;;
35646;SDS011;28680;45.642;13.756;2023-05-23T05:21:08;8.77;;;5.13;;
35646;SDS011;28680;45.642;13.756;2023-05-23T05:23:34;7.50;;;5.20;;
35646;SDS011;28680;45.642;13.756;2023-05-23T05:26:00;11.25;;;4.60;;
35646;SDS011;28680;45.642;13.756;2023-05-23T05:28:27;9.20;;;4.68;;
35646;SDS011;28680;45.642;13.756;2023-05-23T05:30:53;11.40;;;5.13;;
35646;SDS011;28680;45.642;13.756;2023-05-23T05:33:19;13.98;;;5.00;;
35646;SDS011;28680;45.642;13.756;2023-05-23T05:35:49;13.35;;;4.82;;
35646;SDS011;28680;45.642;13.756;2023-05-23T05:38:15;9.38;;;5.18;;
35646;SDS011;28680;45.642;13.756;2023-05-23T05:40:41;12.68;;;5.68;;
35646;SDS011;28680;45.642;13.756;2023-05-23T05:43:07;11.68;;;5.53;;
35646;SDS011;28680;45.642;13.756;2023-05-23T05:45:34;16.08;;;5.63;;
35646;SDS011;28680;45.642;13.756;2023-05-23T05:48:01;9.07;;;5.50;;
35646;SDS011;28680;45.642;13.756;2023-05-23T05:50:27;8.52;;;5.20;;
35646;SDS011;28680;45.642;13.756;2023-05-23T05:52:53;7.70;;;4.45;;
35646;SDS011;28680;45.642;13.756;2023-05-23T05:55:19;10.82;;;5.97;;
35646;SDS011;28680;45.642;13.756;2023-05-23T05:57:45;8.80;;;5.82;;
35646;SDS011;28680;45.642;13.756;2023-05-23T06:00:11;11.50;;;6.53;;
35646;SDS011;28680;45.642;13.756;2023-05-23T06:02:39;11.57;;;6.00;;
35646;SDS011;28680;45.642;13.756;2023-05-23T06:05:11;11.10;;;5.82;;
35646;SDS011;28680;45.642;13.756;2023-05-23T06:07:40;12.10;;;6.97;;
35646;SDS011;28680;45.642;13.756;2023-05-23T06:10:09;13.60;;;6.45;;
35646;SDS011;28680;45.642;13.756;2023-05-23T06:12:38;9.02;;;5.88;;
35646;SDS011;28680;45.642;13.756;2023-05-23T06:15:07;13.15;;;5.97;;
35646;SDS011;28680;45.642;13.756;2023-05-23T06:17:34;9.75;;;5.88;;
35646;SDS011;28680;45.642;13.756;2023-05-23T06:20:00;11.45;;;5.10;;
35646;SDS011;28680;45.642;13.756;2023-05-23T06:22:26;9.35;;;5.50;;
35646;SDS011;28680;45.642;13.756;2023-05-23T06:24:51;9.15;;;5.47;;
35646;SDS011;28680;45.642;13.756;2023-05-23T06:27:17;10.75;;;5.47;;
35646;SDS011;28680;45.642;13.756;2023-05-23T06:29:43;7.50;;;4.97;;
35646;SDS011;28680;45.642;13.756;2023-05-23T06:32:09;7.45;;;4.68;;
35646;SDS011;28680;45.642;13.756;2023-05-23T06:34:35;7.90;;;5.10;;
35646;SDS011;28680;45.642;13.756;2023-05-23T06:37:01;10.80;;;4.85;;
35646;SDS011;28680;45.642;13.756;2023-05-23T06:39:27;7.45;;;4.35;;
35646;SDS011;28680;45.642;13.756;2023-05-23T06:41:53;7.28;;;5.20;;
35646;SDS011;28680;45.642;13.756;2023-05-23T06:44:19;8.38;;;5.35;;
35646;SDS011;28680;45.642;13.756;2023-05-23T06:46:45;12.30;;;5.00;;
35646;SDS011;28680;45.642;13.756;2023-05-23T06:49:11;10.75;;;5.55;;
35646;SDS011;28680;45.642;13.756;2023-05-23T06:51:37;7.30;;;5.18;;
35646;SDS011;28680;45.642;13.756;2023-05-23T06:54:04;9.95;;;5.43;;
35646;SDS011;28680;45.642;13.756;2023-05-23T06:56:30;5.95;;;5.07;;
35646;SDS011;28680;45.642;13.756;2023-05-23T06:58:56;7.50;;;5.03;;
35646;SDS011;28680;45.642;13.756;2023-05-23T07:01:22;11.55;;;5.18;;
35646;SDS011;28680;45.642;13.756;2023-05-23T07:03:48;9.13;;;5.10;;
35646;SDS011;28680;45.642;13.756;2023-05-23T07:06:14;12.70;;;5.40;;
35646;SDS011;28680;45.642;13.756;2023-05-23T07:08:40;10.75;;;5.65;;
35646;SDS011;28680;45.642;13.756;2023-05-23T07:11:06;7.38;;;4.75;;
35646;SDS011;28680;45.642;13.756;2023-05-23T07:13:32;7.95;;;4.82;;
35646;SDS011;28680;45.642;13.756;2023-05-23T07:15:58;10.80;;;5.70;;
35646;SDS011;28680;45.642;13.756;2023-05-23T07:18:24;7.15;;;4.35;;
35646;SDS011;28680;45.642;13.756;2023-05-23T07:20:50;7.15;;;4.82;;
35646;SDS011;28680;45.642;13.756;2023-05-23T07:23:15;11.23;;;5.05;;
35646;SDS011;28680;45.642;13.756;2023-05-23T07:25:41;9.30;;;5.05;;
35646;SDS011;28680;45.642;13.756;2023-05-23T07:28:26;14.10;;;5.35;;
35646;SDS011;28680;45.642;13.756;2023-05-23T07:30:52;10.52;;;5.15;;
35646;SDS011;28680;45.642;13.756;2023-05-23T07:33:18;6.57;;;4.70;;
35646;SDS011;28680;45.642;13.756;2023-05-23T07:35:45;5.85;;;4.43;;
35646;SDS011;28680;45.642;13.756;2023-05-23T07:38:10;5.68;;;4.35;;
35646;SDS011;28680;45.642;13.756;2023-05-23T07:40:36;8.20;;;4.95;;
35646;SDS011;28680;45.642;13.756;2023-05-23T07:43:04;9.98;;;5.22;;
35646;SDS011;28680;45.642;13.756;2023-05-23T07:45:30;9.70;;;5.05;;
35646;SDS011;28680;45.642;13.756;2023-05-23T07:47:56;11.30;;;5.25;;
35646;SDS011;28680;45.642;13.756;2023-05-23T07:50:22;11.18;;;5.40;;
35646;SDS011;28680;45.642;13.756;2023-05-23T07:52:48;10.18;;;5.70;;
35646;SDS011;28680;45.642;13.756;2023-05-23T07:55:16;13.48;;;5.68;;
35646;SDS011;28680;45.642;13.756;2023-05-23T07:57:41;7.88;;;5.03;;
35646;SDS011;28680;45.642;13.756;2023-05-23T08:00:07;7.45;;;4.75;;
35646;SDS011;28680;45.642;13.756;2023-05-23T08:02:36;11.40;;;4.45;;
35646;SDS011;28680;45.642;13.756;2023-05-23T08:05:02;7.93;;;4.72;;
35646;SDS011;28680;45.642;13.756;2023-05-23T08:07:28;13.63;;;4.72;;
35646;SDS011;28680;45.642;13.756;2023-05-23T08:09:54;11.85;;;4.93;;
35646;SDS011;28680;45.642;13.756;2023-05-23T08:12:22;10.05;;;4.97;;
35646;SDS011;28680;45.642;13.756;2023-05-23T08:14:47;10.13;;;5.28;;
35646;SDS011;28680;45.642;13.756;2023-05-23T08:17:13;10.43;;;5.43;;
35646;SDS011;28680;45.642;13.756;2023-05-23T08:19:39;12.90;;;5.57;;
35646;SDS011;28680;45.642;13.756;2023-05-23T08:22:06;9.75;;;5.75;;
35646;SDS011;28680;45.642;13.756;2023-05-23T08:24:31;9.05;;;5.55;;
35646;SDS011;28680;45.642;13.756;2023-05-23T08:26:58;10.93;;;5.70;;
35646;SDS011;28680;45.642;13.756;2023-05-23T08:29:24;8.70;;;4.88;;
35646;SDS011;28680;45.642;13.756;2023-05-23T08:31:50;9.50;;;5.70;;
35646;SDS011;28680;45.642;13.756;2023-05-23T08:34:16;10.32;;;5.50;;
35646;SDS011;28680;45.642;13.756;2023-05-23T08:36:42;7.63;;;5.10;;
35646;SDS011;28680;45.642;13.756;2023-05-23T08:39:07;8.88;;;4.72;;
35646;SDS011;28680;45.642;13.756;2023-05-23T08:41:34;6.90;;;4.95;;
35646;SDS011;28680;45.642;13.756;2023-05-23T08:44:00;10.50;;;4.90;;
35646;SDS011;28680;45.642;13.756;2023-05-23T08:46:26;7.10;;;4.45;;
35646;SDS011;28680;45.642;13.756;2023-05-23T08:48:53;8.90;;;4.72;;
35646;SDS011;28680;45.642;13.756;2023-05-23T08:51:21;5.82;;;4.30;;
35646;SDS011;28680;45.642;13.756;2023-05-23T08:53:49;7.32;;;4.97;;
35646;SDS011;28680;45.642;13.756;2023-05-23T08:56:17;8.20;;;4.95;;
35646;SDS011;28680;45.642;13.756;2023-05-23T08:58:45;8.52;;;4.32;;
35646;SDS011;28680;45.642;13.756;2023-05-23T09:01:14;9.25;;;5.30;;
35646;SDS011;28680;45.642;13.756;2023-05-23T09:03:44;7.57;;;4.72;;
35646;SDS011;28680;45.642;13.756;2023-05-23T09:06:10;8.20;;;5.05;;
35646;SDS011;28680;45.642;13.756;2023-05-23T09:08:37;7.63;;;4.82;;
35646;SDS011;28680;45.642;13.756;2023-05-23T09:11:03;10.93;;;4.43;;
35646;SDS011;28680;45.642;13.756;2023-05-23T09:13:30;6.00;;;4.35;;
35646;SDS011;28680;45.642;13.756;2023-05-23T09:18:33;9.40;;;4.38;;
35646;SDS011;28680;45.642;13.756;2023-05-23T09:21:04;6.70;;;4.43;;
35646;SDS011;28680;45.642;13.756;2023-05-23T09:23:32;7.20;;;4.10;;
35646;SDS011;28680;45.642;13.756;2023-05-23T09:26:07;6.13;;;4.47;;
35646;SDS011;28680;45.642;13.756;2023-05-23T09:28:36;7.30;;;4.53;;
35646;SDS011;28680;45.642;13.756;2023-05-23T09:31:03;7.68;;;4.75;;
35646;SDS011;28680;45.642;13.756;2023-05-23T09:33:37;7.63;;;4.30;;
35646;SDS011;28680;45.642;13.756;2023-05-23T09:36:07;9.05;;;4.30;;
35646;SDS011;28680;45.642;13.756;2023-05-23T09:38:37;10.13;;;5.05;;
35646;SDS011;28680;45.642;13.756;2023-05-23T09:41:04;9.20;;;5.00;;
35646;SDS011;28680;45.642;13.756;2023-05-23T09:43:30;10.20;;;4.97;;
35646;SDS011;28680;45.642;13.756;2023-05-23T09:46:06;9.25;;;5.28;;
35646;SDS011;28680;45.642;13.756;2023-05-23T09:48:35;7.70;;;4.22;;
35646;SDS011;28680;45.642;13.756;2023-05-23T09:51:04;12.80;;;6.32;;
35646;SDS011;28680;45.642;13.756;2023-05-23T09:53:33;5.68;;;4.20;;
35646;SDS011;28680;45.642;13.756;2023-05-23T09:55:59;14.80;;;6.00;;
35646;SDS011;28680;45.642;13.756;2023-05-23T09:58:27;7.97;;;4.55;;
35646;SDS011;28680;45.642;13.756;2023-05-23T10:00:55;21.08;;;7.18;;
35646;SDS011;28680;45.642;13.756;2023-05-23T10:06:25;13.13;;;6.15;;
35646;SDS011;28680;45.642;13.756;2023-05-23T10:09:09;7.80;;;4.53;;
35646;SDS011;28680;45.642;13.756;2023-05-23T10:11:59;11.43;;;5.60;;
35646;SDS011;28680;45.642;13.756;2023-05-23T10:14:39;6.07;;;4.63;;
35646;SDS011;28680;45.642;13.756;2023-05-23T10:17:18;8.93;;;4.93;;
35646;SDS011;28680;45.642;13.756;2023-05-23T10:20:30;10.25;;;5.05;;
35646;SDS011;28680;45.642;13.756;2023-05-23T10:23:00;12.18;;;5.32;;
35646;SDS011;28680;45.642;13.756;2023-05-23T10:25:29;10.38;;;5.45;;
35646;SDS011;28680;45.642;13.756;2023-05-23T10:27:56;9.60;;;4.35;;
35646;SDS011;28680;45.642;13.756;2023-05-23T10:30:24;9.90;;;4.95;;
35646;SDS011;28680;45.642;13.756;2023-05-23T10:32:51;11.88;;;5.15;;
35646;SDS011;28680;45.642;13.756;2023-05-23T10:35:29;8.18;;;4.88;;
35646;SDS011;28680;45.642;13.756;2023-05-23T10:44:10;7.55;;;4.90;;
35646;SDS011;28680;45.642;13.756;2023-05-23T10:46:54;8.00;;;4.85;;
35646;SDS011;28680;45.642;13.756;2023-05-23T10:49:36;8.98;;;4.65;;
35646;SDS011;28680;45.642;13.756;2023-05-23T10:52:05;11.05;;;5.00;;
35646;SDS011;28680;45.642;13.756;2023-05-23T10:54:34;8.85;;;4.72;;
35646;SDS011;28680;45.642;13.756;2023-05-23T10:57:08;9.98;;;4.80;;
35646;SDS011;28680;45.642;13.756;2023-05-23T10:59:39;9.00;;;4.70;;
35646;SDS011;28680;45.642;13.756;2023-05-23T11:02:08;7.85;;;4.80;;
35646;SDS011;28680;45.642;13.756;2023-05-23T11:04:42;11.65;;;4.95;;
35646;SDS011;28680;45.642;13.756;2023-05-23T11:10:07;7.97;;;4.50;;
35646;SDS011;28680;45.642;13.756;2023-05-23T11:12:36;6.38;;;4.43;;
35646;SDS011;28680;45.642;13.756;2023-05-23T11:17:48;7.10;;;4.50;;
35646;SDS011;28680;45.642;13.756;2023-05-23T11:20:20;6.28;;;4.55;;
35646;SDS011;28680;45.642;13.756;2023-05-23T11:22:57;5.70;;;3.92;;
35646;SDS011;28680;45.642;13.756;2023-05-23T11:25:42;6.65;;;4.28;;
35646;SDS011;28680;45.642;13.756;2023-05-23T11:28:10;7.90;;;4.13;;
35646;SDS011;28680;45.642;13.756;2023-05-23T11:30:37;8.27;;;4.32;;
35646;SDS011;28680;45.642;13.756;2023-05-23T11:33:12;4.57;;;3.90;;
35646;SDS011;28680;45.642;13.756;2023-05-23T11:38:12;4.88;;;4.00;;
35646;SDS011;28680;45.642;13.756;2023-05-23T11:40:42;6.15;;;4.07;;
35646;SDS011;28680;45.642;13.756;2023-05-23T11:43:13;6.38;;;4.28;;
35646;SDS011;28680;45.642;13.756;2023-05-23T11:45:43;6.60;;;4.80;;
35646;SDS011;28680;45.642;13.756;2023-05-23T11:48:13;7.72;;;4.55;;
35646;SDS011;28680;45.642;13.756;2023-05-23T11:53:11;6.75;;;4.57;;
35646;SDS011;28680;45.642;13.756;2023-05-23T11:55:52;8.82;;;4.65;;
35646;SDS011;28680;45.642;13.756;2023-05-23T11:58:33;7.03;;;5.03;;
35646;SDS011;28680;45.642;13.756;2023-05-23T12:01:05;8.63;;;5.43;;
35646;SDS011;28680;45.642;13.756;2023-05-23T12:03:49;8.32;;;4.38;;
35646;SDS011;28680;45.642;13.756;2023-05-23T12:06:23;7.25;;;4.57;;
35646;SDS011;28680;45.642;13.756;2023-05-23T12:08:52;6.32;;;4.55;;
35646;SDS011;28680;45.642;13.756;2023-05-23T12:11:19;8.05;;;4.80;;
35646;SDS011;28680;45.642;13.756;2023-05-23T12:13:46;8.63;;;4.90;;
35646;SDS011;28680;45.642;13.756;2023-05-23T12:16:13;7.57;;;4.30;;
35646;SDS011;28680;45.642;13.756;2023-05-23T12:18:41;8.00;;;4.80;;
35646;SDS011;28680;45.642;13.756;2023-05-23T12:21:07;7.93;;;4.72;;
35646;SDS011;28680;45.642;13.756;2023-05-23T12:23:33;7.57;;;4.28;;
35646;SDS011;28680;45.642;13.756;2023-05-23T12:26:00;10.90;;;5.80;;
35646;SDS011;28680;45.642;13.756;2023-05-23T12:28:40;8.07;;;4.78;;
35646;SDS011;28680;45.642;13.756;2023-05-23T12:31:19;7.90;;;5.45;;
35646;SDS011;28680;45.642;13.756;2023-05-23T12:33:46;6.93;;;5.07;;
35646;SDS011;28680;45.642;13.756;2023-05-23T12:36:14;7.95;;;4.90;;
35646;SDS011;28680;45.642;13.756;2023-05-23T12:39:00;9.57;;;5.50;;
35646;SDS011;28680;45.642;13.756;2023-05-23T12:41:28;7.70;;;4.78;;
35646;SDS011;28680;45.642;13.756;2023-05-23T12:43:54;9.07;;;5.07;;
35646;SDS011;28680;45.642;13.756;2023-05-23T12:46:21;7.10;;;5.03;;
35646;SDS011;28680;45.642;13.756;2023-05-23T12:48:49;8.27;;;5.43;;
35646;SDS011;28680;45.642;13.756;2023-05-23T12:51:16;9.60;;;5.55;;
35646;SDS011;28680;45.642;13.756;2023-05-23T12:54:45;9.43;;;5.55;;
35646;SDS011;28680;45.642;13.756;2023-05-23T12:57:19;7.25;;;5.50;;
35646;SDS011;28680;45.642;13.756;2023-05-23T12:59:46;8.32;;;5.07;;
35646;SDS011;28680;45.642;13.756;2023-05-23T13:02:12;9.43;;;5.50;;
35646;SDS011;28680;45.642;13.756;2023-05-23T13:04:37;8.32;;;5.40;;
35646;SDS011;28680;45.642;13.756;2023-05-23T13:07:03;7.32;;;5.45;;
35646;SDS011;28680;45.642;13.756;2023-05-23T13:09:29;8.15;;;4.97;;
35646;SDS011;28680;45.642;13.756;2023-05-23T13:11:55;7.32;;;5.10;;
35646;SDS011;28680;45.642;13.756;2023-05-23T13:14:22;7.50;;;4.75;;
35646;SDS011;28680;45.642;13.756;2023-05-23T13:16:48;10.95;;;6.10;;
35646;SDS011;28680;45.642;13.756;2023-05-23T13:19:14;10.82;;;6.03;;
35646;SDS011;28680;45.642;13.756;2023-05-23T13:21:40;8.20;;;5.45;;
35646;SDS011;28680;45.642;13.756;2023-05-23T13:24:07;7.38;;;5.65;;
35646;SDS011;28680;45.642;13.756;2023-05-23T13:26:33;10.00;;;5.78;;
35646;SDS011;28680;45.642;13.756;2023-05-23T13:28:59;7.95;;;5.30;;
35646;SDS011;28680;45.642;13.756;2023-05-23T13:31:26;8.00;;;5.45;;
35646;SDS011;28680;45.642;13.756;2023-05-23T13:33:52;10.52;;;5.45;;
35646;SDS011;28680;45.642;13.756;2023-05-23T13:36:18;10.13;;;5.80;;
35646;SDS011;28680;45.642;13.756;2023-05-23T13:38:44;7.85;;;5.50;;
35646;SDS011;28680;45.642;13.756;2023-05-23T13:41:10;9.30;;;5.80;;
35646;SDS011;28680;45.642;13.756;2023-05-23T13:43:35;6.57;;;5.43;;
35646;SDS011;28680;45.642;13.756;2023-05-23T13:46:01;10.55;;;5.70;;
35646;SDS011;28680;45.642;13.756;2023-05-23T13:48:27;8.32;;;5.38;;
35646;SDS011;28680;45.642;13.756;2023-05-23T13:50:54;8.68;;;5.50;;
35646;SDS011;28680;45.642;13.756;2023-05-23T13:53:20;7.80;;;5.35;;
35646;SDS011;28680;45.642;13.756;2023-05-23T13:55:46;8.85;;;5.35;;
35646;SDS011;28680;45.642;13.756;2023-05-23T13:58:12;8.57;;;5.55;;
35646;SDS011;28680;45.642;13.756;2023-05-23T14:00:38;9.98;;;5.70;;
35646;SDS011;28680;45.642;13.756;2023-05-23T14:03:05;9.32;;;5.50;;
35646;SDS011;28680;45.642;13.756;2023-05-23T14:05:32;9.00;;;5.65;;
35646;SDS011;28680;45.642;13.756;2023-05-23T14:07:59;10.57;;;5.60;;
35646;SDS011;28680;45.642;13.756;2023-05-23T14:10:25;8.98;;;5.47;;
35646;SDS011;28680;45.642;13.756;2023-05-23T14:12:51;8.98;;;5.38;;
35646;SDS011;28680;45.642;13.756;2023-05-23T14:15:17;8.30;;;5.55;;
35646;SDS011;28680;45.642;13.756;2023-05-23T14:17:43;9.40;;;5.15;;
35646;SDS011;28680;45.642;13.756;2023-05-23T14:20:09;9.32;;;5.43;;
35646;SDS011;28680;45.642;13.756;2023-05-23T14:22:35;7.07;;;5.35;;
35646;SDS011;28680;45.642;13.756;2023-05-23T14:25:01;9.60;;;5.55;;
35646;SDS011;28680;45.642;13.756;2023-05-23T14:27:27;6.78;;;5.20;;
35646;SDS011;28680;45.642;13.756;2023-05-23T14:29:53;7.28;;;5.72;;
35646;SDS011;28680;45.642;13.756;2023-05-23T14:32:19;8.23;;;5.93;;
35646;SDS011;28680;45.642;13.756;2023-05-23T14:34:46;8.23;;;4.93;;
35646;SDS011;28680;45.642;13.756;2023-05-23T14:37:12;9.98;;;5.47;;
35646;SDS011;28680;45.642;13.756;2023-05-23T14:39:37;10.10;;;5.50;;
35646;SDS011;28680;45.642;13.756;2023-05-23T19:21:20;16.52;;;6.90;;
35646;SDS011;28680;45.642;13.756;2023-05-23T19:23:46;11.65;;;6.90;;
35646;SDS011;28680;45.642;13.756;2023-05-23T19:26:13;14.43;;;6.55;;
35646;SDS011;28680;45.642;13.756;2023-05-23T19:28:39;12.05;;;6.60;;
35646;SDS011;28680;45.642;13.756;2023-05-23T19:31:06;15.48;;;6.38;;
35646;SDS011;28680;45.642;13.756;2023-05-23T19:33:33;12.68;;;7.25;;
35646;SDS011;28680;45.642;13.756;2023-05-23T19:35:59;18.42;;;6.70;;
35646;SDS011;28680;45.642;13.756;2023-05-23T19:38:25;15.88;;;6.50;;
35646;SDS011;28680;45.642;13.756;2023-05-23T19:41:00;14.25;;;6.68;;
35646;SDS011;28680;45.642;13.756;2023-05-23T19:43:26;14.88;;;6.63;;
35646;SDS011;28680;45.642;13.756;2023-05-23T19:45:52;16.85;;;7.32;;